Fort Worth - NOAA's Hourly Summary for Saturday, April 15, 2017
Hour Temp
(f)
RH
(%)
Solar Rad.
(MJ/m2)
Rainfall
(in)
Wind
(mph)
4/15/2017 12:00 AM 70 70 0 0 7.2
4/15/2017 1:00 AM 69 74 0 0 6.42
4/15/2017 2:00 AM 68 77 0 0 3.77
4/15/2017 3:00 AM 67 81 0 0 3.02
4/15/2017 4:00 AM 67 83 0 0 5.13
4/15/2017 5:00 AM 67 83 0 0 4.91
4/15/2017 6:00 AM 65 87 0 0 3.5
4/15/2017 7:00 AM 65 89 0.12 0 4.66
4/15/2017 8:00 AM 67 85 0.74 0 6.01
4/15/2017 9:00 AM 70 77 1.41 0 6.79
4/15/2017 10:00 AM 74 68 2.1 0 8.38
4/15/2017 11:00 AM 76 64 2.6 0 7.01
4/15/2017 12:00 PM 77 61 1.78 0 6.63
4/15/2017 1:00 PM 78 59 2.26 0 8.86
4/15/2017 2:00 PM 79 58 2.48 0 8.72
4/15/2017 3:00 PM 79 56 2.07 0 9.22
4/15/2017 4:00 PM 79 57 1.16 0 8.07
4/15/2017 5:00 PM 79 56 1.4 0 8.44
4/15/2017 6:00 PM 78 56 0.74 0 9.08
4/15/2017 7:00 PM 77 60 0.15 0 8.25
4/15/2017 8:00 PM 75 64 0.01 0 7.32
4/15/2017 9:00 PM 74 67 0 0 6.65
4/15/2017 10:00 PM 73 68 0 0 4.83
4/15/2017 11:00 PM 72 71 0 0 4.47
Data Summary 72 69 19.02 0.00 6.56